createdAt,value
2019-01-14T00:39:58.691Z,-3.89
2019-01-14T00:48:54.029Z,-3.73
2019-01-14T00:51:42.195Z,-3.87
2019-01-14T00:58:14.746Z,-3.57
2019-01-14T01:48:23.387Z,-4.41
2019-01-14T02:00:59.836Z,-4.40
2019-01-14T02:07:30.304Z,-4.05
2019-01-14T02:17:15.136Z,-4.30
2019-01-14T03:30:33.559Z,-5.12
2019-01-14T07:31:01.322Z,3.64
2019-01-14T07:33:30.007Z,4.60
2019-01-14T07:35:58.613Z,5.09
2019-01-14T07:38:27.174Z,5.15
2019-01-14T07:40:58.809Z,5.94
2019-01-14T07:43:27.393Z,7.23
2019-01-14T07:45:55.968Z,6.89
2019-01-14T07:48:24.634Z,7.09
2019-01-14T07:50:53.418Z,7.37
2019-01-14T07:53:22.051Z,6.54
2019-01-14T07:55:50.605Z,6.93
2019-01-14T07:58:19.208Z,6.78
2019-01-14T08:00:48.309Z,7.67
2019-01-14T08:03:16.976Z,8.61
2019-01-14T08:05:45.585Z,8.52
2019-01-14T08:08:14.456Z,8.92
2019-01-14T08:10:43.208Z,9.41
2019-01-14T08:13:12.369Z,10.20
2019-01-14T08:15:41.458Z,10.21
2019-01-14T08:18:13.409Z,10.41
2019-01-14T08:20:42.062Z,10.92
2019-01-14T08:23:10.695Z,10.69
2019-01-14T08:25:39.302Z,10.09
2019-01-14T08:28:07.997Z,10.34
2019-01-14T08:30:39.853Z,11.25
2019-01-14T08:33:11.148Z,11.96
2019-01-14T08:35:39.780Z,13.17
2019-01-14T08:38:08.444Z,13.51
2019-01-14T08:40:37.008Z,12.30
2019-01-14T08:43:08.375Z,11.70
2019-01-14T08:45:36.947Z,11.34
2019-01-14T08:48:05.787Z,11.72
2019-01-14T08:50:36.911Z,11.90
2019-01-14T08:53:05.586Z,11.63
2019-01-14T08:55:34.131Z,13.52
2019-01-14T08:58:02.777Z,14.04
2019-01-14T09:00:31.451Z,13.69
2019-01-14T09:03:00.086Z,13.79
2019-01-14T09:05:28.770Z,13.89
2019-01-14T09:07:57.423Z,12.57
2019-01-14T09:10:26.052Z,11.74
2019-01-14T09:12:54.867Z,13.03
2019-01-14T09:15:23.492Z,13.11
2019-01-14T09:17:52.221Z,13.20
2019-01-14T09:20:22.218Z,11.78
2019-01-14T09:22:51.037Z,11.01
2019-01-14T09:25:19.705Z,11.03
2019-01-14T09:27:48.332Z,10.41
2019-01-14T09:30:21.500Z,11.01
2019-01-14T09:32:50.244Z,11.30
2019-01-14T09:35:18.884Z,11.58
2019-01-14T09:37:47.862Z,12.67
2019-01-14T09:40:18.590Z,14.00
2019-01-14T09:42:47.547Z,15.35
2019-01-14T09:45:16.426Z,15.96
2019-01-14T09:47:45.103Z,16.36
2019-01-14T09:50:15.440Z,16.68
2019-01-14T09:52:47.075Z,17.16
2019-01-14T09:55:17.609Z,16.87
2019-01-14T09:57:46.380Z,16.74
2019-01-14T10:00:15.219Z,18.20
2019-01-14T10:02:44.165Z,18.20
2019-01-14T10:05:15.124Z,19.53
2019-01-14T10:07:46.727Z,18.76
2019-01-14T10:10:20.304Z,17.17
2019-01-14T10:12:49.020Z,16.41
2019-01-14T10:15:22.899Z,15.34
2019-01-14T10:17:53.173Z,15.11
2019-01-14T10:20:21.857Z,14.33
2019-01-14T10:22:50.474Z,13.55
2019-01-14T10:25:19.139Z,13.34
2019-01-14T10:27:47.760Z,12.45
2019-01-14T10:30:20.339Z,12.52
2019-01-14T10:32:48.960Z,12.30
2019-01-14T10:35:17.709Z,12.03
2019-01-14T10:37:49.039Z,11.71
2019-01-14T10:40:17.956Z,11.76
2019-01-14T10:42:52.345Z,11.53
2019-01-14T10:45:23.166Z,10.95
2019-01-14T10:47:51.948Z,11.23
2019-01-14T10:50:23.586Z,11.01
2019-01-14T10:52:52.260Z,10.90
2019-01-14T10:55:20.882Z,10.73
2019-01-14T10:57:52.549Z,10.41
2019-01-14T11:00:23.899Z,10.18
2019-01-14T11:02:52.857Z,9.63
2019-01-14T11:05:27.140Z,9.84
2019-01-14T11:07:55.926Z,9.72
2019-01-14T11:10:24.596Z,9.61
2019-01-14T11:12:53.266Z,8.77
2019-01-14T11:15:22.536Z,9.56
2019-01-14T11:17:51.133Z,9.59
2019-01-14T11:20:28.024Z,9.36
2019-01-14T11:22:59.602Z,9.48
2019-01-14T11:25:28.229Z,9.64
2019-01-14T11:27:56.978Z,9.51
2019-01-14T11:30:27.502Z,9.82
2019-01-14T11:32:58.965Z,9.54
2019-01-14T11:35:27.616Z,8.83
2019-01-14T11:37:56.354Z,8.16
2019-01-14T11:40:31.252Z,7.66
2019-01-14T11:42:59.873Z,7.93
2019-01-14T11:45:28.421Z,8.11
2019-01-14T11:47:57.106Z,8.28
2019-01-14T11:50:25.742Z,8.27
2019-01-14T11:52:54.350Z,8.05
2019-01-14T11:55:22.995Z,8.60
2019-01-14T11:57:51.635Z,8.81
2019-01-14T12:00:25.028Z,8.87
2019-01-14T12:02:54.002Z,8.52
2019-01-14T12:05:22.865Z,8.79
2019-01-14T12:07:51.485Z,8.81
2019-01-14T12:10:20.170Z,8.71
2019-01-14T12:12:48.833Z,9.01
2019-01-14T12:15:22.649Z,9.40
2019-01-14T12:17:54.260Z,10.15
2019-01-14T12:20:22.987Z,10.24
2019-01-14T12:22:54.615Z,10.94
2019-01-14T12:25:23.236Z,11.29
2019-01-14T12:27:51.928Z,11.57
2019-01-14T12:30:26.388Z,11.38
2019-01-14T12:32:54.989Z,11.78
2019-01-14T12:35:23.614Z,11.75
2019-01-14T12:37:52.218Z,11.41
2019-01-14T12:40:25.237Z,11.14
2019-01-14T12:42:54.047Z,10.79
2019-01-14T12:45:23.487Z,10.14
2019-01-14T12:47:52.178Z,10.07
2019-01-14T12:50:22.409Z,9.93
2019-01-14T12:52:51.263Z,9.87
2019-01-14T12:55:20.094Z,9.71
2019-01-14T12:57:48.690Z,9.56
2019-01-14T13:00:23.673Z,9.30
2019-01-14T13:02:52.383Z,9.01
2019-01-14T13:05:22.756Z,8.93
2019-01-14T13:07:51.484Z,8.81
2019-01-14T13:10:20.302Z,8.76
2019-01-14T13:12:48.972Z,8.79
2019-01-14T13:15:20.422Z,8.79
2019-01-14T13:17:49.172Z,8.79
2019-01-14T13:20:21.852Z,8.76
2019-01-14T13:22:50.494Z,8.61
2019-01-14T13:25:22.664Z,8.47
2019-01-14T13:27:51.340Z,8.35
2019-01-14T13:30:33.809Z,8.29
2019-01-14T13:33:02.462Z,8.30
2019-01-14T13:35:31.119Z,8.31
2019-01-14T13:37:59.741Z,8.40
2019-01-14T13:40:28.359Z,8.47
2019-01-14T13:42:57.035Z,8.54
2019-01-14T13:45:26.345Z,8.58
2019-01-14T13:47:58.575Z,8.56
2019-01-14T13:50:29.918Z,8.54
2019-01-14T13:52:58.616Z,8.51
2019-01-14T13:55:27.826Z,8.46
2019-01-14T13:57:59.977Z,8.41
2019-01-14T14:00:27.113Z,8.27
2019-01-14T14:02:56.332Z,8.26
2019-01-14T14:05:24.991Z,8.26
2019-01-14T14:07:53.621Z,8.03
2019-01-14T14:10:27.472Z,8.07
2019-01-14T14:12:56.747Z,7.90
2019-01-14T14:15:25.554Z,7.68
2019-01-14T14:17:54.221Z,7.77
2019-01-14T14:20:22.842Z,7.91
2019-01-14T14:22:51.510Z,7.98
2019-01-14T14:25:20.146Z,7.91
2019-01-14T14:27:48.846Z,7.74
2019-01-14T14:30:28.538Z,7.58
2019-01-14T14:33:00.225Z,7.41
2019-01-14T14:35:29.351Z,7.33
2019-01-14T14:38:01.449Z,7.19
2019-01-14T14:40:28.855Z,6.91
2019-01-14T14:42:57.480Z,6.96
2019-01-14T14:45:28.855Z,7.07
2019-01-14T14:48:00.402Z,6.92
2019-01-14T14:50:29.051Z,6.91
2019-01-14T14:52:57.754Z,6.88
2019-01-14T14:55:28.793Z,6.75
2019-01-14T14:57:57.470Z,6.47
2019-01-14T15:00:29.344Z,6.08
2019-01-14T15:03:00.650Z,5.98
2019-01-14T15:05:30.326Z,5.87
2019-01-14T15:07:58.946Z,5.95
2019-01-14T15:10:27.604Z,5.96
2019-01-14T15:12:56.273Z,5.83
2019-01-14T15:15:25.870Z,6.01
2019-01-14T15:18:03.482Z,6.06
2019-01-14T15:20:32.102Z,6.11
2019-01-14T15:23:00.760Z,6.08
2019-01-14T15:25:29.309Z,6.03
2019-01-14T15:28:02.075Z,5.99
2019-01-14T15:30:31.254Z,5.99
2019-01-14T15:32:59.973Z,5.53
2019-01-14T15:35:28.637Z,5.36
2019-01-14T15:37:57.272Z,5.23
2019-01-14T15:40:25.956Z,5.08
2019-01-14T15:42:57.534Z,5.32
2019-01-14T15:45:29.581Z,5.41
2019-01-14T15:47:58.193Z,5.45
2019-01-14T15:50:26.905Z,5.49
2019-01-14T15:52:55.513Z,5.56
2019-01-14T15:55:28.206Z,5.41
2019-01-14T15:57:56.878Z,5.16
2019-01-14T16:00:28.352Z,5.30
2019-01-14T16:02:56.982Z,5.41
2019-01-14T16:05:25.597Z,5.41
2019-01-14T16:07:54.452Z,5.36
2019-01-14T16:10:29.859Z,5.23
2019-01-14T16:13:01.461Z,5.10
2019-01-14T16:15:30.070Z,5.22
2019-01-14T16:17:58.900Z,5.20
2019-01-14T16:20:27.603Z,5.26
2019-01-14T16:22:56.287Z,5.27
2019-01-14T16:25:24.963Z,5.17
2019-01-14T16:27:53.681Z,5.06
2019-01-14T16:30:25.547Z,5.02
2019-01-14T16:32:57.131Z,4.98
2019-01-14T16:35:25.789Z,4.95
2019-01-14T16:37:54.410Z,4.91
2019-01-14T16:40:23.559Z,4.89
2019-01-14T16:42:52.189Z,4.93
2019-01-14T16:45:25.409Z,4.92
2019-01-14T16:47:54.098Z,5.00
2019-01-14T16:50:22.792Z,4.97
2019-01-14T16:52:51.509Z,4.87
2019-01-14T16:55:22.886Z,4.86
2019-01-14T16:57:51.606Z,4.80
2019-01-14T17:00:22.961Z,4.73
2019-01-14T17:02:51.570Z,4.73
2019-01-14T17:05:20.286Z,4.79
2019-01-14T17:07:48.903Z,4.89
2019-01-14T17:10:25.129Z,4.93
2019-01-14T17:12:56.218Z,4.97
2019-01-14T17:15:25.066Z,4.98
2019-01-14T17:17:53.775Z,5.03
2019-01-14T17:20:33.568Z,5.17
2019-01-14T17:23:02.322Z,5.25
2019-01-14T17:25:30.965Z,5.30
2019-01-14T17:28:05.760Z,5.32
2019-01-14T17:30:34.366Z,5.35
2019-01-14T17:33:06.384Z,5.32
2019-01-14T17:35:39.210Z,5.24
2019-01-14T17:38:07.951Z,5.22
2019-01-14T17:40:36.583Z,5.17
2019-01-14T17:43:06.614Z,5.12
2019-01-14T17:45:35.358Z,5.09
2019-01-14T17:48:06.866Z,5.06
2019-01-14T17:50:35.574Z,4.99
2019-01-14T17:53:04.717Z,4.90
2019-01-14T17:55:39.164Z,4.83
2019-01-14T17:58:07.897Z,4.74
2019-01-14T18:00:36.750Z,4.68
2019-01-14T18:03:07.714Z,4.65
2019-01-14T18:05:38.683Z,4.65
2019-01-14T18:08:07.309Z,4.64
2019-01-14T18:10:39.982Z,4.60
2019-01-14T18:13:07.952Z,4.52
2019-01-14T18:15:51.475Z,4.44
2019-01-14T18:18:20.169Z,4.30
2019-01-14T18:20:48.865Z,4.23
2019-01-14T18:23:17.595Z,4.22
2019-01-14T18:25:46.358Z,4.23
2019-01-14T18:28:14.979Z,4.22
2019-01-14T18:30:45.117Z,4.14
2019-01-14T18:33:14.777Z,4.31
2019-01-14T18:35:43.379Z,4.31
2019-01-14T18:38:16.185Z,4.26
2019-01-14T18:40:47.215Z,4.16
2019-01-14T18:43:17.972Z,4.04
2019-01-14T18:45:46.553Z,3.98
2019-01-14T18:48:20.610Z,3.96
2019-01-14T18:50:53.686Z,3.97
2019-01-14T18:53:22.261Z,3.89
2019-01-14T18:55:57.090Z,3.98
2019-01-14T18:58:25.750Z,4.02
2019-01-14T19:00:54.472Z,4.08
2019-01-14T19:03:24.682Z,4.09
2019-01-14T19:05:53.347Z,4.10
2019-01-14T19:08:22.004Z,4.09
2019-01-14T19:10:54.518Z,4.09
2019-01-14T19:13:21.074Z,4.13
2019-01-14T19:15:49.711Z,4.10
2019-01-14T19:18:18.304Z,4.02
2019-01-14T19:20:46.857Z,3.97
2019-01-14T19:23:15.473Z,3.86
2019-01-14T19:25:44.067Z,3.92
2019-01-14T19:28:12.704Z,4.14
2019-01-14T19:30:41.440Z,4.29
2019-01-14T19:33:10.113Z,4.38
2019-01-14T19:35:38.726Z,4.45
2019-01-14T19:38:07.417Z,4.43
2019-01-14T19:40:36.051Z,4.42
2019-01-14T19:43:04.682Z,4.35
2019-01-14T19:45:33.306Z,4.32
2019-01-14T19:48:01.937Z,4.36
2019-01-14T19:50:30.665Z,4.42
2019-01-14T19:52:59.342Z,4.51
2019-01-14T19:55:28.015Z,4.59
2019-01-14T19:57:56.622Z,4.65
2019-01-14T20:00:28.425Z,4.79
2019-01-14T20:02:57.170Z,4.89
2019-01-14T20:05:25.809Z,5.00
2019-01-14T20:07:55.315Z,5.09
2019-01-14T20:10:23.939Z,5.11
2019-01-14T20:12:52.614Z,5.16
2019-01-14T20:15:22.580Z,5.17
2019-01-14T20:17:51.272Z,5.18
2019-01-14T20:20:22.568Z,5.17
2019-01-14T20:22:51.186Z,5.12
2019-01-14T20:25:28.524Z,5.14
2019-01-14T20:27:59.895Z,5.04
2019-01-14T20:30:28.542Z,5.03
2019-01-14T20:32:57.213Z,5.01
2019-01-14T20:35:27.247Z,4.99
2019-01-14T20:37:55.885Z,4.99
2019-01-14T20:40:28.781Z,4.94
2019-01-14T20:43:04.466Z,4.94
2019-01-14T20:45:36.074Z,4.93
2019-01-14T20:48:11.406Z,4.86
2019-01-14T20:50:40.082Z,4.90
2019-01-14T20:53:13.634Z,4.95
2019-01-14T20:55:41.874Z,4.99
2019-01-14T20:58:14.770Z,5.00
2019-01-14T21:00:46.152Z,5.04
2019-01-14T21:03:14.820Z,5.11
2019-01-14T21:05:44.683Z,5.12
2019-01-14T21:08:13.291Z,5.18
2019-01-14T21:10:41.813Z,5.23
2019-01-14T21:13:10.302Z,5.28
2019-01-14T21:15:38.904Z,5.30
2019-01-14T21:18:07.555Z,5.24
2019-01-14T21:20:36.217Z,5.30
2019-01-14T21:23:04.881Z,5.26
2019-01-14T21:25:33.427Z,5.24
2019-01-14T21:28:02.199Z,5.24
2019-01-14T21:30:30.744Z,5.24
2019-01-14T21:32:59.365Z,5.23
2019-01-14T21:35:27.973Z,5.17
2019-01-14T21:38:01.332Z,5.11
2019-01-14T21:40:30.043Z,5.07
2019-01-14T21:43:02.379Z,4.91
2019-01-14T21:45:30.859Z,4.88
2019-01-14T21:48:07.797Z,4.76
2019-01-14T21:50:37.844Z,4.78
2019-01-14T21:53:13.754Z,4.72
2019-01-14T21:55:45.851Z,4.62
2019-01-14T21:58:14.485Z,4.61
2019-01-14T22:00:43.018Z,4.63
2019-01-14T22:03:13.210Z,4.67
2019-01-14T22:05:41.913Z,4.70
2019-01-14T22:08:10.473Z,4.61
2019-01-14T22:10:39.067Z,4.56
2019-01-14T22:13:07.607Z,4.53
2019-01-14T22:15:42.114Z,4.63
2019-01-14T22:18:14.844Z,4.77
2019-01-14T22:20:43.467Z,4.76
2019-01-14T22:23:12.002Z,4.64
2019-01-14T22:25:40.552Z,4.55
2019-01-14T22:28:10.237Z,4.42
2019-01-14T22:30:38.800Z,4.27
2019-01-14T22:33:07.354Z,4.16
2019-01-14T22:35:35.914Z,4.15
2019-01-14T22:38:04.584Z,4.19
2019-01-14T22:40:45.175Z,4.23
2019-01-14T22:43:13.742Z,4.20
2019-01-14T22:45:42.302Z,4.15
2019-01-14T22:48:12.137Z,4.10
2019-01-14T22:50:40.695Z,3.99
2019-01-14T22:53:09.236Z,4.05
2019-01-14T22:55:37.770Z,4.08
2019-01-14T22:58:06.375Z,4.10
2019-01-14T23:00:57.079Z,4.17
2019-01-14T23:03:31.873Z,4.21
2019-01-14T23:06:00.635Z,4.26
2019-01-14T23:08:29.295Z,4.34
2019-01-14T23:10:57.910Z,4.38
2019-01-14T23:13:26.592Z,4.43
2019-01-14T23:15:58.531Z,4.44
2019-01-14T23:18:27.144Z,4.48
2019-01-14T23:20:55.764Z,4.44
2019-01-14T23:23:24.394Z,4.43
2019-01-14T23:25:55.891Z,4.40
2019-01-14T23:28:24.513Z,4.36
2019-01-14T23:30:53.098Z,4.26
2019-01-14T23:33:21.713Z,4.20
2019-01-14T23:35:50.296Z,4.15
2019-01-14T23:38:18.912Z,4.09
2019-01-14T23:40:47.567Z,4.07
2019-01-14T23:43:16.112Z,4.05
2019-01-14T23:45:44.763Z,4.03
2019-01-14T23:48:13.422Z,3.99
2019-01-14T23:50:41.960Z,3.94
2019-01-14T23:53:10.616Z,3.91
2019-01-14T23:55:39.162Z,3.97
2019-01-14T23:58:07.784Z,3.98
